createdAt,value
2019-03-17T00:00:47.195Z,9.47
2019-03-17T00:03:14.954Z,9.40
2019-03-17T00:05:42.741Z,9.16
2019-03-17T00:08:10.515Z,9.19
2019-03-17T00:10:38.393Z,9.19
2019-03-17T00:13:06.192Z,9.25
2019-03-17T00:15:34.085Z,9.21
2019-03-17T00:18:01.878Z,9.10
2019-03-17T00:20:29.622Z,9.16
2019-03-17T00:22:57.388Z,9.10
2019-03-17T00:25:25.133Z,9.02
2019-03-17T00:27:52.938Z,8.91
2019-03-17T00:30:20.722Z,8.91
2019-03-17T00:32:48.493Z,9.04
2019-03-17T00:35:16.258Z,8.83
2019-03-17T00:37:44.047Z,8.73
2019-03-17T00:40:11.819Z,8.77
2019-03-17T00:42:39.686Z,8.68
2019-03-17T00:45:07.556Z,8.56
2019-03-17T00:47:35.306Z,8.50
2019-03-17T00:50:03.523Z,8.59
2019-03-17T00:52:31.306Z,8.70
2019-03-17T00:54:59.038Z,8.64
2019-03-17T00:57:26.810Z,8.61
2019-03-17T00:59:54.563Z,8.46
2019-03-17T01:02:22.326Z,8.43
2019-03-17T01:04:56.446Z,8.61
2019-03-17T01:07:22.214Z,8.49
2019-03-17T01:09:49.993Z,8.60
2019-03-17T01:12:17.789Z,8.59
2019-03-17T01:14:45.561Z,8.70
2019-03-17T01:17:13.291Z,8.77
2019-03-17T01:19:41.071Z,8.67
2019-03-17T01:22:08.832Z,8.77
2019-03-17T01:24:36.591Z,8.60
2019-03-17T01:27:04.341Z,8.59
2019-03-17T01:29:32.134Z,8.54
2019-03-17T01:31:59.870Z,8.60
2019-03-17T01:34:27.676Z,8.61
2019-03-17T01:36:55.453Z,8.50
2019-03-17T01:39:23.246Z,8.44
2019-03-17T01:41:51.390Z,8.44
2019-03-17T01:44:19.231Z,8.46
2019-03-17T01:46:46.960Z,8.45
2019-03-17T01:49:14.711Z,8.46
2019-03-17T01:51:42.471Z,8.54
2019-03-17T01:54:10.221Z,8.43
2019-03-17T01:56:37.991Z,8.51
2019-03-17T01:59:05.728Z,8.47
2019-03-17T02:01:33.471Z,8.56
2019-03-17T02:04:01.255Z,8.51
2019-03-17T02:06:28.976Z,8.49
2019-03-17T02:08:56.710Z,8.54
2019-03-17T02:11:24.451Z,8.56
2019-03-17T02:13:52.235Z,8.56
2019-03-17T02:16:19.993Z,8.43
2019-03-17T02:18:47.801Z,8.52
2019-03-17T02:21:15.539Z,8.43
2019-03-17T02:23:43.273Z,8.40
2019-03-17T02:26:11.012Z,8.33
2019-03-17T02:28:38.775Z,8.40
2019-03-17T02:31:06.544Z,8.50
2019-03-17T02:33:34.275Z,8.34
2019-03-17T02:36:02.037Z,8.41
2019-03-17T02:38:29.992Z,8.42
2019-03-17T02:40:57.835Z,8.53
2019-03-17T02:43:25.546Z,8.53
2019-03-17T02:45:53.377Z,8.48
2019-03-17T02:48:21.202Z,8.40
2019-03-17T02:50:48.958Z,8.42
2019-03-17T02:53:16.718Z,8.60
2019-03-17T02:55:44.485Z,8.62
2019-03-17T02:58:12.237Z,8.69
2019-03-17T03:00:40.109Z,8.70
2019-03-17T03:03:07.856Z,8.72
2019-03-17T03:05:35.652Z,8.76
2019-03-17T03:08:03.400Z,8.73
2019-03-17T03:10:32.116Z,8.75
2019-03-17T03:13:00.230Z,8.72
2019-03-17T03:15:28.035Z,8.87
2019-03-17T03:17:55.767Z,8.85
2019-03-17T03:20:23.546Z,8.88
2019-03-17T03:22:51.282Z,8.93
2019-03-17T03:25:19.120Z,8.85
2019-03-17T03:27:46.869Z,8.85
2019-03-17T03:30:14.762Z,8.80
2019-03-17T03:32:42.479Z,8.81
2019-03-17T03:35:10.555Z,8.74
2019-03-17T03:37:38.278Z,8.71
2019-03-17T03:40:06.555Z,8.74
2019-03-17T03:42:34.305Z,8.60
2019-03-17T03:45:02.027Z,8.56
2019-03-17T03:47:29.789Z,8.76
2019-03-17T03:49:57.535Z,8.64
2019-03-17T03:52:25.278Z,8.64
2019-03-17T03:54:53.075Z,8.75
2019-03-17T03:57:20.916Z,8.68
2019-03-17T03:59:48.746Z,8.55
2019-03-17T04:02:16.522Z,8.53
2019-03-17T04:04:44.290Z,8.61
2019-03-17T04:07:12.061Z,8.61
2019-03-17T04:09:39.794Z,8.68
2019-03-17T04:12:07.554Z,8.55
2019-03-17T04:14:35.306Z,8.61
2019-03-17T04:17:03.114Z,8.55
2019-03-17T04:19:30.869Z,8.57
2019-03-17T04:21:58.618Z,8.51
2019-03-17T04:24:27.504Z,8.54
2019-03-17T04:26:55.235Z,8.55
2019-03-17T04:29:23.025Z,8.55
2019-03-17T04:31:50.740Z,8.52
2019-03-17T04:34:18.478Z,8.42
2019-03-17T04:36:46.219Z,8.58
2019-03-17T04:39:14.017Z,8.64
2019-03-17T04:41:41.768Z,8.63
2019-03-17T04:44:20.359Z,8.58
2019-03-17T04:46:39.158Z,8.58
2019-03-17T04:49:06.892Z,8.51
2019-03-17T04:51:34.646Z,8.51
2019-03-17T04:54:02.361Z,8.41
2019-03-17T04:56:30.116Z,8.45
2019-03-17T04:58:57.882Z,8.40
2019-03-17T05:01:25.669Z,8.47
2019-03-17T05:03:53.472Z,8.51
2019-03-17T05:06:21.215Z,8.39
2019-03-17T05:08:48.954Z,8.49
2019-03-17T05:11:16.668Z,8.45
2019-03-17T05:13:44.431Z,8.44
2019-03-17T05:16:12.148Z,8.50
2019-03-17T05:18:39.942Z,8.38
2019-03-17T05:21:07.662Z,8.46
2019-03-17T05:23:35.415Z,8.38
2019-03-17T05:26:03.150Z,8.61
2019-03-17T05:28:30.913Z,8.54
2019-03-17T05:30:58.634Z,8.60
2019-03-17T05:33:26.442Z,8.52
2019-03-17T05:35:54.175Z,8.38
2019-03-17T05:38:21.952Z,8.46
2019-03-17T05:40:49.661Z,8.45
2019-03-17T05:43:17.433Z,8.44
2019-03-17T05:45:45.175Z,8.55
2019-03-17T05:48:12.972Z,8.60
2019-03-17T05:50:40.711Z,8.59
2019-03-17T05:53:08.496Z,8.66
2019-03-17T05:55:36.235Z,8.77
2019-03-17T05:58:04.031Z,8.75
2019-03-17T06:00:31.778Z,8.69
2019-03-17T06:02:59.561Z,8.79
2019-03-17T06:05:27.315Z,8.84
2019-03-17T06:07:55.379Z,8.79
2019-03-17T06:10:23.145Z,8.85
2019-03-17T06:12:50.878Z,8.93
2019-03-17T06:15:18.623Z,9.01
2019-03-17T06:17:46.405Z,9.03
2019-03-17T06:20:14.238Z,9.02
2019-03-17T06:22:42.355Z,9.12
2019-03-17T06:25:10.307Z,9.17
2019-03-17T06:27:38.067Z,9.32
2019-03-17T06:30:06.521Z,9.27
2019-03-17T06:32:34.218Z,9.30
2019-03-17T06:35:01.980Z,9.37
2019-03-17T06:37:31.186Z,9.33
2019-03-17T06:39:59.214Z,9.43
2019-03-17T06:42:26.974Z,9.43
2019-03-17T06:44:54.690Z,9.52
2019-03-17T06:47:22.476Z,9.48
2019-03-17T06:49:50.217Z,9.53
2019-03-17T06:52:17.959Z,9.58
2019-03-17T06:54:45.716Z,9.56
2019-03-17T06:57:13.430Z,9.53
2019-03-17T06:59:41.219Z,9.70
2019-03-17T07:02:08.939Z,9.58
2019-03-17T07:04:36.719Z,9.73
2019-03-17T07:07:04.464Z,9.74
2019-03-17T07:09:32.204Z,9.82
2019-03-17T07:12:00.169Z,9.79
2019-03-17T07:14:27.905Z,9.83
2019-03-17T07:16:55.663Z,9.81
2019-03-17T07:19:23.418Z,9.91
2019-03-17T07:21:51.179Z,10.01
2019-03-17T07:24:18.916Z,9.98
2019-03-17T07:26:46.702Z,10.15
2019-03-17T07:29:14.448Z,10.34
2019-03-17T07:31:42.220Z,10.63
2019-03-17T07:34:09.923Z,10.92
2019-03-17T07:36:37.689Z,11.15
2019-03-17T07:39:12.193Z,11.26
2019-03-17T07:41:36.811Z,11.21
2019-03-17T07:44:04.542Z,11.02
2019-03-17T07:46:32.314Z,11.11
2019-03-17T07:49:00.061Z,11.18
2019-03-17T07:51:27.829Z,11.18
2019-03-17T07:53:55.605Z,11.26
2019-03-17T07:56:23.399Z,11.38
2019-03-17T07:58:51.149Z,11.58
2019-03-17T08:01:18.929Z,11.80
2019-03-17T08:03:46.692Z,11.94
2019-03-17T08:06:14.434Z,11.99
2019-03-17T08:08:42.266Z,11.88
2019-03-17T08:11:10.139Z,11.89
2019-03-17T08:13:37.900Z,11.78
2019-03-17T08:16:06.006Z,11.91
2019-03-17T08:18:33.790Z,11.94
2019-03-17T08:21:01.616Z,11.90
2019-03-17T08:23:29.372Z,12.11
2019-03-17T08:25:57.108Z,11.99
2019-03-17T08:28:24.880Z,12.10
2019-03-17T08:30:53.695Z,12.13
2019-03-17T08:33:21.593Z,12.16
2019-03-17T08:35:49.381Z,12.22
2019-03-17T08:38:21.892Z,12.23
2019-03-17T08:40:46.818Z,12.24
2019-03-17T08:43:14.638Z,12.26
2019-03-17T08:45:42.398Z,12.48
2019-03-17T08:48:10.212Z,12.63
2019-03-17T08:50:37.908Z,12.74
2019-03-17T08:53:05.678Z,13.05
2019-03-17T08:55:33.471Z,13.41
2019-03-17T08:58:01.304Z,13.69
2019-03-17T09:00:29.079Z,13.66
2019-03-17T09:02:56.880Z,13.46
2019-03-17T09:05:24.647Z,13.42
2019-03-17T09:07:52.444Z,13.23
2019-03-17T09:10:20.309Z,13.26
2019-03-17T09:12:48.448Z,13.28
2019-03-17T09:15:16.247Z,13.26
2019-03-17T09:17:44.005Z,13.30
2019-03-17T09:20:11.833Z,13.55
2019-03-17T09:22:39.627Z,13.67
2019-03-17T09:25:08.306Z,13.83
2019-03-17T09:27:36.127Z,14.12
2019-03-17T09:30:04.947Z,14.31
2019-03-17T09:32:32.761Z,14.42
2019-03-17T09:35:00.561Z,14.68
2019-03-17T09:37:28.393Z,14.96
2019-03-17T09:39:56.195Z,15.20
2019-03-17T09:42:24.005Z,15.19
2019-03-17T09:44:51.797Z,15.30
2019-03-17T09:47:19.697Z,15.19
2019-03-17T09:49:47.765Z,15.20
2019-03-17T09:52:15.527Z,15.65
2019-03-17T09:54:43.356Z,16.35
2019-03-17T09:57:11.117Z,16.91
2019-03-17T09:59:38.963Z,17.21
2019-03-17T10:02:06.712Z,18.04
2019-03-17T10:04:34.463Z,18.13
2019-03-17T10:07:02.216Z,18.48
2019-03-17T10:09:29.999Z,18.65
2019-03-17T10:11:58.054Z,18.36
2019-03-17T10:14:26.021Z,17.69
2019-03-17T10:16:53.848Z,17.91
2019-03-17T10:19:21.549Z,17.84
2019-03-17T10:21:49.363Z,17.76
2019-03-17T10:24:17.084Z,17.86
2019-03-17T10:26:44.831Z,18.28
2019-03-17T10:29:12.582Z,19.30
2019-03-17T10:31:40.413Z,18.52
2019-03-17T10:34:08.174Z,17.60
2019-03-17T10:36:35.944Z,17.28
2019-03-17T10:39:12.444Z,16.78
2019-03-17T10:41:35.128Z,16.39
2019-03-17T10:44:02.875Z,18.21
2019-03-17T10:46:30.640Z,17.68
2019-03-17T10:48:58.416Z,17.03
2019-03-17T10:51:26.256Z,16.50
2019-03-17T10:53:54.034Z,16.12
2019-03-17T10:56:21.825Z,15.81
2019-03-17T10:58:49.545Z,15.86
2019-03-17T11:01:17.335Z,15.91
2019-03-17T11:03:45.150Z,16.17
2019-03-17T11:06:12.934Z,16.93
2019-03-17T11:08:40.708Z,17.16
2019-03-17T11:11:11.909Z,16.93
2019-03-17T11:13:38.558Z,16.82
2019-03-17T11:16:06.334Z,16.68
2019-03-17T11:18:34.130Z,16.74
2019-03-17T11:21:01.947Z,17.15
2019-03-17T11:23:29.785Z,17.88
2019-03-17T11:25:57.523Z,17.80
2019-03-17T11:28:25.347Z,17.21
2019-03-17T11:31:03.043Z,17.26
2019-03-17T11:33:30.978Z,17.27
2019-03-17T11:36:00.446Z,17.56
2019-03-17T11:38:30.707Z,17.15
2019-03-17T11:40:58.754Z,17.55
2019-03-17T11:43:29.244Z,19.85
2019-03-17T11:45:57.127Z,19.78
2019-03-17T11:48:25.117Z,19.08
2019-03-17T11:50:59.217Z,18.42
2019-03-17T11:53:29.428Z,17.92
2019-03-17T11:55:57.233Z,17.23
2019-03-17T11:58:25.129Z,17.08
2019-03-17T12:00:53.026Z,16.70
2019-03-17T12:03:23.862Z,16.22
2019-03-17T12:05:51.810Z,16.19
2019-03-17T12:08:22.728Z,16.22
2019-03-17T12:10:50.563Z,16.21
2019-03-17T12:13:25.777Z,16.23
2019-03-17T12:15:53.551Z,15.91
2019-03-17T12:18:21.343Z,15.61
2019-03-17T12:20:49.140Z,15.39
2019-03-17T12:23:16.944Z,15.12
2019-03-17T12:25:47.810Z,15.05
2019-03-17T12:28:15.638Z,15.00
2019-03-17T12:30:43.444Z,14.81
2019-03-17T12:33:11.273Z,14.88
2019-03-17T12:35:39.064Z,14.98
2019-03-17T12:38:06.961Z,14.91
2019-03-17T12:40:34.750Z,14.90
2019-03-17T12:43:02.537Z,14.80
2019-03-17T12:45:33.396Z,14.44
2019-03-17T12:48:01.212Z,13.86
2019-03-17T12:50:29.041Z,13.64
2019-03-17T12:52:56.806Z,13.53
2019-03-17T12:55:24.666Z,13.44
2019-03-17T12:57:52.481Z,13.29
2019-03-17T13:00:20.308Z,13.18
2019-03-17T13:02:48.089Z,13.09
2019-03-17T13:05:15.899Z,13.04
2019-03-17T13:07:43.703Z,12.93
2019-03-17T13:10:15.914Z,12.77
2019-03-17T13:12:43.061Z,12.78
2019-03-17T13:15:10.967Z,12.67
2019-03-17T13:17:38.789Z,12.68
2019-03-17T13:20:07.875Z,12.76
2019-03-17T13:22:35.597Z,12.69
2019-03-17T13:25:03.894Z,12.75
2019-03-17T13:27:31.696Z,12.65
2019-03-17T13:29:59.829Z,12.55
2019-03-17T13:32:27.763Z,12.55
2019-03-17T13:34:55.587Z,12.33
2019-03-17T13:37:23.359Z,12.33
2019-03-17T13:39:51.158Z,12.44
2019-03-17T13:42:18.936Z,12.76
2019-03-17T13:44:46.779Z,12.76
2019-03-17T13:47:14.580Z,12.86
2019-03-17T13:49:42.464Z,13.45
2019-03-17T13:52:10.230Z,13.46
2019-03-17T13:54:37.992Z,13.35
2019-03-17T13:57:05.823Z,13.02
2019-03-17T13:59:33.664Z,13.10
2019-03-17T14:02:01.428Z,12.93
2019-03-17T14:04:29.190Z,12.80
2019-03-17T14:06:56.994Z,12.53
2019-03-17T14:09:24.785Z,12.29
2019-03-17T14:11:52.567Z,11.80
2019-03-17T14:14:20.352Z,11.62
2019-03-17T14:16:48.137Z,11.32
2019-03-17T14:19:15.911Z,10.93
2019-03-17T14:21:43.706Z,10.92
2019-03-17T14:24:11.490Z,10.57
2019-03-17T14:26:39.294Z,10.33
2019-03-17T14:29:07.032Z,10.04
2019-03-17T14:31:35.122Z,9.74
2019-03-17T14:34:02.995Z,9.51
2019-03-17T14:36:31.039Z,9.41
2019-03-17T14:38:58.844Z,9.31
2019-03-17T14:41:26.607Z,9.30
2019-03-17T14:43:54.352Z,9.36
2019-03-17T14:46:22.181Z,9.32
2019-03-17T14:48:49.969Z,9.40
2019-03-17T14:51:18.490Z,9.42
2019-03-17T14:53:46.218Z,9.58
2019-03-17T14:56:13.993Z,9.64
2019-03-17T14:58:41.883Z,9.59
2019-03-17T15:01:09.626Z,9.71
2019-03-17T15:03:37.449Z,9.76
2019-03-17T15:06:05.203Z,9.74
2019-03-17T15:08:34.074Z,9.61
2019-03-17T15:11:06.058Z,9.92
2019-03-17T15:13:31.480Z,9.95
2019-03-17T15:16:03.043Z,10.08
2019-03-17T15:18:28.916Z,10.08
2019-03-17T15:20:56.729Z,10.04
2019-03-17T15:23:24.508Z,10.09
2019-03-17T15:25:52.295Z,10.19
2019-03-17T15:28:20.069Z,10.17
2019-03-17T15:31:05.487Z,10.30
2019-03-17T15:33:17.514Z,10.37
2019-03-17T15:35:45.298Z,10.25
2019-03-17T15:38:13.121Z,10.26
2019-03-17T15:40:40.953Z,10.19
2019-03-17T15:43:08.753Z,10.26
2019-03-17T15:45:36.519Z,10.31
2019-03-17T15:48:04.534Z,10.25
2019-03-17T15:50:32.340Z,10.25
2019-03-17T15:53:00.113Z,10.33
2019-03-17T15:55:27.930Z,10.23
2019-03-17T15:57:55.642Z,10.15
2019-03-17T16:00:26.336Z,10.14
2019-03-17T16:02:53.170Z,10.08
2019-03-17T16:05:21.017Z,10.12
2019-03-17T16:07:48.926Z,10.08
2019-03-17T16:10:17.982Z,10.13
2019-03-17T16:12:45.740Z,10.13
2019-03-17T16:15:13.712Z,10.17
2019-03-17T16:17:41.494Z,10.01
2019-03-17T16:20:12.329Z,10.05
2019-03-17T16:22:40.104Z,10.01
2019-03-17T16:25:08.503Z,10.02
2019-03-17T16:27:36.295Z,10.04
2019-03-17T16:30:05.471Z,10.02
2019-03-17T16:32:33.288Z,9.99
2019-03-17T16:35:01.104Z,10.08
2019-03-17T16:37:29.750Z,10.05
2019-03-17T16:39:57.567Z,10.01
2019-03-17T16:42:25.362Z,9.85
2019-03-17T16:44:53.441Z,9.92
2019-03-17T16:47:21.235Z,9.99
2019-03-17T16:49:49.007Z,10.04
2019-03-17T16:52:16.804Z,9.97
2019-03-17T16:54:46.394Z,9.91
2019-03-17T16:57:14.178Z,9.92
2019-03-17T16:59:41.990Z,9.79
2019-03-17T17:02:09.769Z,9.70
2019-03-17T17:04:37.595Z,9.77
2019-03-17T17:07:05.357Z,9.75
2019-03-17T17:09:33.422Z,9.76
2019-03-17T17:12:01.241Z,9.54
2019-03-17T17:14:29.366Z,9.37
2019-03-17T17:16:57.125Z,9.13
2019-03-17T17:19:24.965Z,9.31
2019-03-17T17:21:52.748Z,9.26
2019-03-17T17:24:20.503Z,9.26
2019-03-17T17:26:49.159Z,9.29
2019-03-17T17:29:16.957Z,9.22
2019-03-17T17:31:44.729Z,9.18
2019-03-17T17:34:12.503Z,9.17
2019-03-17T17:36:40.289Z,9.08
2019-03-17T17:39:09.007Z,8.96
2019-03-17T17:41:36.796Z,9.03
2019-03-17T17:44:04.659Z,9.10
2019-03-17T17:46:32.473Z,9.15
2019-03-17T17:49:00.281Z,9.03
2019-03-17T17:51:28.832Z,8.98
2019-03-17T17:53:56.633Z,8.95
2019-03-17T17:56:24.424Z,8.98
2019-03-17T17:58:52.328Z,8.90
2019-03-17T18:01:20.235Z,8.89
2019-03-17T18:03:51.915Z,8.84
2019-03-17T18:06:17.782Z,8.84
2019-03-17T18:08:45.566Z,8.91
2019-03-17T18:11:13.347Z,8.76
2019-03-17T18:13:41.195Z,8.72
2019-03-17T18:16:08.968Z,8.77
2019-03-17T18:18:36.764Z,8.67
2019-03-17T18:21:04.794Z,8.73
2019-03-17T18:23:32.582Z,8.76
2019-03-17T18:26:00.365Z,8.81
2019-03-17T18:28:28.612Z,8.79
2019-03-17T18:30:56.752Z,8.72
2019-03-17T18:33:24.808Z,8.64
2019-03-17T18:35:52.646Z,8.77
2019-03-17T18:38:20.606Z,8.79
2019-03-17T18:40:48.409Z,8.71
2019-03-17T18:43:16.479Z,8.70
2019-03-17T18:45:44.561Z,8.64
2019-03-17T18:48:12.344Z,8.70
2019-03-17T18:50:40.119Z,8.67
2019-03-17T18:53:10.956Z,8.73
2019-03-17T18:55:38.780Z,8.70
2019-03-17T18:58:06.603Z,8.65
2019-03-17T19:00:34.393Z,8.64
2019-03-17T19:03:02.210Z,8.73
2019-03-17T19:05:30.028Z,8.84
2019-03-17T19:07:57.851Z,8.75
2019-03-17T19:10:25.899Z,8.69
2019-03-17T19:12:53.690Z,8.64
2019-03-17T19:15:23.096Z,8.67
2019-03-17T19:17:50.960Z,8.58
2019-03-17T19:20:18.807Z,8.73
2019-03-17T19:22:46.909Z,8.66
2019-03-17T19:25:14.937Z,8.47
2019-03-17T19:27:42.773Z,8.43
2019-03-17T19:30:12.724Z,8.56
2019-03-17T19:32:40.693Z,8.51
2019-03-17T19:35:08.697Z,8.48
2019-03-17T19:37:36.509Z,8.56
2019-03-17T19:40:05.125Z,8.47
2019-03-17T19:42:32.922Z,8.48
2019-03-17T19:45:01.049Z,8.36
2019-03-17T19:47:28.844Z,8.41
2019-03-17T19:49:56.706Z,8.26
2019-03-17T19:52:24.508Z,8.20
2019-03-17T19:54:52.317Z,8.06
2019-03-17T19:57:20.109Z,8.07
2019-03-17T19:59:47.897Z,7.98
2019-03-17T20:02:15.719Z,8.05
2019-03-17T20:04:43.525Z,7.88
2019-03-17T20:07:11.276Z,7.92
2019-03-17T20:09:39.088Z,7.80
2019-03-17T20:12:06.867Z,7.55
2019-03-17T20:14:34.699Z,7.58
2019-03-17T20:17:02.504Z,7.75
2019-03-17T20:19:32.802Z,7.65
2019-03-17T20:22:00.621Z,7.64
2019-03-17T20:24:28.421Z,7.67
2019-03-17T20:26:56.222Z,7.69
2019-03-17T20:29:24.038Z,7.69
2019-03-17T20:31:51.950Z,7.68
2019-03-17T20:34:19.822Z,7.67
2019-03-17T20:36:50.600Z,7.70
2019-03-17T20:39:18.535Z,7.73
2019-03-17T20:41:46.397Z,7.68
2019-03-17T20:44:14.376Z,7.68
2019-03-17T20:46:44.984Z,7.78
2019-03-17T20:49:18.241Z,7.68
2019-03-17T20:51:46.181Z,7.69
2019-03-17T20:54:13.987Z,7.73
2019-03-17T20:56:41.741Z,7.66
2019-03-17T20:59:09.521Z,7.65
2019-03-17T21:01:37.329Z,7.60
2019-03-17T21:04:05.121Z,7.53
2019-03-17T21:06:33.363Z,7.52
2019-03-17T21:09:01.233Z,7.48
2019-03-17T21:11:29.183Z,7.60
2019-03-17T21:13:56.965Z,7.43
2019-03-17T21:16:24.823Z,7.61
2019-03-17T21:18:58.260Z,7.55
2019-03-17T21:21:26.061Z,7.55
2019-03-17T21:23:59.101Z,7.48
2019-03-17T21:26:29.891Z,7.53
2019-03-17T21:28:57.769Z,7.51
2019-03-17T21:31:25.593Z,7.51
2019-03-17T21:33:53.350Z,7.56
2019-03-17T21:36:21.263Z,7.54
2019-03-17T21:38:49.045Z,7.50
2019-03-17T21:43:45.443Z,7.42
2019-03-17T21:46:13.232Z,7.46
2019-03-17T21:48:40.972Z,7.40
2019-03-17T21:51:08.759Z,7.50
2019-03-17T21:53:36.515Z,7.41
2019-03-17T21:56:04.280Z,7.41
2019-03-17T21:58:32.022Z,7.38
2019-03-17T22:01:00.097Z,7.42
2019-03-17T22:03:27.848Z,7.40
2019-03-17T22:05:55.606Z,7.43
2019-03-17T22:08:23.390Z,7.41
2019-03-17T22:10:51.177Z,7.43
2019-03-17T22:13:18.943Z,7.43
2019-03-17T22:15:46.785Z,7.48
2019-03-17T22:18:14.562Z,7.45
2019-03-17T22:20:42.370Z,7.50
2019-03-17T22:23:10.123Z,7.47
2019-03-17T22:25:37.908Z,7.35
2019-03-17T22:28:08.570Z,7.35
2019-03-17T22:30:35.303Z,7.42
2019-03-17T22:33:03.111Z,7.43
2019-03-17T22:35:30.883Z,7.46
2019-03-17T22:37:58.668Z,7.44
2019-03-17T22:40:26.447Z,7.43
2019-03-17T22:42:54.230Z,7.41
2019-03-17T22:45:21.975Z,7.40
2019-03-17T22:47:49.746Z,7.44
2019-03-17T22:50:17.507Z,7.39
2019-03-17T22:52:45.258Z,7.38
2019-03-17T22:55:13.607Z,7.47
2019-03-17T22:57:41.377Z,7.44
2019-03-17T23:00:13.319Z,7.40
2019-03-17T23:02:41.098Z,7.42
2019-03-17T23:05:08.849Z,7.43
2019-03-17T23:07:37.011Z,7.38
2019-03-17T23:10:05.715Z,7.35
2019-03-17T23:12:33.529Z,7.46
2019-03-17T23:15:01.290Z,7.40
2019-03-17T23:17:29.095Z,7.43
2019-03-17T23:19:56.881Z,7.33
2019-03-17T23:22:24.672Z,7.24
2019-03-17T23:24:52.431Z,7.22
2019-03-17T23:27:20.180Z,7.20
2019-03-17T23:29:47.932Z,7.20
2019-03-17T23:32:15.749Z,7.15
2019-03-17T23:34:43.449Z,7.28
2019-03-17T23:37:11.221Z,7.32
2019-03-17T23:39:38.948Z,7.27
2019-03-17T23:42:06.709Z,7.36
2019-03-17T23:44:34.482Z,7.24
2019-03-17T23:47:02.213Z,7.26
2019-03-17T23:49:29.991Z,7.25
2019-03-17T23:51:57.723Z,7.19
2019-03-17T23:54:25.485Z,6.99
2019-03-17T23:56:53.242Z,7.08
2019-03-17T23:59:21.021Z,7.04
